Time;durP1;ratioP1;P1;durP2;ratioP2;P2;SDS_P1;SDS_P2;PMS_P1;PMS_P2;Temp;Humidity;BMP_temperature;BMP_pressure;BME280_temperature;BME280_humidity;BME280_pressure;Samples;Min_cycle;Max_cycle;Signal;HPM_P1;HPM_P2
2023/01/27 00:00:38;;;;;;;14.77;6.70;;;;;;;;;;5070645;28;20037;-77
2023/01/27 00:03:04;;;;;;;15.20;7.07;;;;;;;;;;5043531;28;20055;-78
2023/01/27 00:05:30;;;;;;;17.17;7.80;;;;;;;;;;5053824;28;20122;-78
2023/01/27 00:07:57;;;;;;;19.23;7.43;;;;;;;;;;5067203;28;20037;-78
2023/01/27 00:10:23;;;;;;;18.63;7.25;;;;;;;;;;5062777;28;20600;-78
2023/01/27 00:15:34;;;;;;;16.27;7.05;;;;;;;;;;5065389;28;20143;-77
2023/01/27 00:18:00;;;;;;;14.52;7.40;;;;;;;;;;5061358;28;20492;-78
2023/01/27 00:26:05;;;;;;;18.58;8.02;;;;;;;;;;5074972;28;20051;-78
2023/01/27 00:28:31;;;;;;;16.15;8.40;;;;;;;;;;5060912;28;20476;-78
2023/01/27 00:30:57;;;;;;;15.98;8.30;;;;;;;;;;5074638;28;20079;-78
2023/01/27 00:33:23;;;;;;;22.02;9.32;;;;;;;;;;5076308;28;20513;-78
2023/01/27 00:35:49;;;;;;;18.58;9.05;;;;;;;;;;5075959;28;20086;-78
2023/01/27 00:38:15;;;;;;;20.27;9.60;;;;;;;;;;5058097;28;20044;-77
2023/01/27 00:41:14;;;;;;;19.15;9.90;;;;;;;;;;5074495;28;20063;-79
2023/01/27 00:43:28;;;;;;;18.73;9.60;;;;;;;;;;5076086;28;20054;-79
2023/01/27 00:45:55;;;;;;;19.92;9.98;;;;;;;;;;5074395;28;20044;-78
2023/01/27 00:48:21;;;;;;;23.85;10.80;;;;;;;;;;5064829;28;20102;-78
2023/01/27 00:50:47;;;;;;;21.92;10.15;;;;;;;;;;5070385;28;20048;-77
2023/01/27 00:53:13;;;;;;;19.63;9.57;;;;;;;;;;5057716;28;20153;-78
2023/01/27 00:55:39;;;;;;;23.45;9.60;;;;;;;;;;5074232;28;20041;-78
2023/01/27 00:58:05;;;;;;;22.40;10.27;;;;;;;;;;5074164;28;20167;-78
2023/01/27 01:00:41;;;;;;;20.80;10.68;;;;;;;;;;5060996;28;20525;-77
2023/01/27 01:03:08;;;;;;;21.23;10.60;;;;;;;;;;5060650;28;20040;-78
2023/01/27 01:05:34;;;;;;;21.83;9.90;;;;;;;;;;5073790;28;20037;-78
2023/01/27 01:08:00;;;;;;;22.17;10.90;;;;;;;;;;5061301;28;20039;-78
2023/01/27 01:10:26;;;;;;;27.15;10.40;;;;;;;;;;5074010;28;20041;-78
2023/01/27 01:12:52;;;;;;;20.50;10.20;;;;;;;;;;5057168;28;20037;-77
2023/01/27 01:15:18;;;;;;;17.70;9.48;;;;;;;;;;5062390;28;20097;-78
2023/01/27 01:17:44;;;;;;;22.08;9.48;;;;;;;;;;5059551;28;20095;-78
2023/01/27 01:20:10;;;;;;;20.45;9.93;;;;;;;;;;5073696;28;20064;-78
2023/01/27 01:22:36;;;;;;;19.00;9.55;;;;;;;;;;5073425;28;20049;-78
2023/01/27 01:25:03;;;;;;;16.85;9.40;;;;;;;;;;5074898;28;20029;-78
2023/01/27 01:27:29;;;;;;;16.60;8.90;;;;;;;;;;5075062;28;20044;-79
2023/01/27 01:29:55;;;;;;;13.45;7.00;;;;;;;;;;5073447;28;20036;-78
2023/01/27 01:32:21;;;;;;;13.05;7.13;;;;;;;;;;5073989;28;20040;-78
2023/01/27 01:34:47;;;;;;;12.80;7.93;;;;;;;;;;5073553;28;20528;-78
2023/01/27 01:37:13;;;;;;;17.50;8.45;;;;;;;;;;5059472;28;20409;-78
2023/01/27 01:39:39;;;;;;;13.68;7.50;;;;;;;;;;5073125;28;20086;-78
2023/01/27 01:42:05;;;;;;;12.98;7.03;;;;;;;;;;5059760;28;20045;-78
2023/01/27 01:44:32;;;;;;;11.43;7.07;;;;;;;;;;5060727;28;20071;-78
2023/01/27 01:46:58;;;;;;;13.35;7.25;;;;;;;;;;5061526;28;20040;-78
2023/01/27 01:49:31;;;;;;;16.05;8.40;;;;;;;;;;5067044;28;20041;-77
2023/01/27 01:51:58;;;;;;;13.93;7.63;;;;;;;;;;5065489;28;20505;-78
2023/01/27 01:54:35;;;;;;;14.43;6.90;;;;;;;;;;5073228;28;20421;-78
2023/01/27 01:57:04;;;;;;;14.15;6.97;;;;;;;;;;5073126;28;20045;-78
2023/01/27 01:59:36;;;;;;;11.18;6.07;;;;;;;;;;5074620;28;20062;-79
2023/01/27 02:02:04;;;;;;;10.20;5.97;;;;;;;;;;5073008;28;20074;-78
2023/01/27 02:04:36;;;;;;;10.18;5.93;;;;;;;;;;5073052;28;20049;-79
2023/01/27 02:07:06;;;;;;;12.15;5.88;;;;;;;;;;5072758;28;20048;-78
2023/01/27 02:09:32;;;;;;;9.85;5.47;;;;;;;;;;5056539;28;20040;-78
2023/01/27 02:11:58;;;;;;;12.10;5.57;;;;;;;;;;5072303;28;20409;-78
2023/01/27 02:14:25;;;;;;;10.85;5.40;;;;;;;;;;5072861;28;20039;-77
2023/01/27 02:16:51;;;;;;;10.25;5.05;;;;;;;;;;5065216;28;20048;-78
2023/01/27 02:19:37;;;;;;;9.13;4.95;;;;;;;;;;5053020;28;20049;-78
2023/01/27 02:22:05;;;;;;;8.93;5.03;;;;;;;;;;5060631;28;20067;-77
2023/01/27 02:24:36;;;;;;;9.82;4.93;;;;;;;;;;5072320;28;20052;-78
2023/01/27 02:27:02;;;;;;;10.50;4.88;;;;;;;;;;5061238;28;20072;-78
2023/01/27 02:29:28;;;;;;;8.25;4.60;;;;;;;;;;5059423;28;20048;-78
2023/01/27 02:31:54;;;;;;;8.48;4.55;;;;;;;;;;5070938;28;20045;-78
2023/01/27 02:34:22;;;;;;;8.85;4.60;;;;;;;;;;5055551;28;20041;-78
2023/01/27 02:36:49;;;;;;;7.22;4.50;;;;;;;;;;5071796;28;20143;-78
2023/01/27 02:39:16;;;;;;;10.82;4.43;;;;;;;;;;5072270;28;20039;-78
2023/01/27 02:41:44;;;;;;;11.60;4.40;;;;;;;;;;5071814;28;20082;-78
2023/01/27 02:44:10;;;;;;;6.72;4.35;;;;;;;;;;5058504;28;20048;-79
2023/01/27 02:46:37;;;;;;;9.70;4.40;;;;;;;;;;5072442;28;20132;-79
2023/01/27 02:49:03;;;;;;;8.23;3.70;;;;;;;;;;5071376;28;20042;-79
2023/01/27 02:51:29;;;;;;;6.95;4.10;;;;;;;;;;5071783;28;20052;-78
2023/01/27 02:53:55;;;;;;;7.35;4.20;;;;;;;;;;5071574;28;20389;-78
2023/01/27 02:56:21;;;;;;;6.25;3.88;;;;;;;;;;5068919;28;20504;-78
2023/01/27 02:58:48;;;;;;;8.93;3.38;;;;;;;;;;5050450;28;20041;-79
2023/01/27 03:01:14;;;;;;;11.75;3.33;;;;;;;;;;5034203;28;20036;-79
2023/01/27 03:03:45;;;;;;;6.57;3.05;;;;;;;;;;5034521;28;20067;-79
2023/01/27 03:06:12;;;;;;;7.15;3.45;;;;;;;;;;5051367;28;20056;-79
2023/01/27 03:08:38;;;;;;;5.28;3.15;;;;;;;;;;5051479;28;20067;-78
2023/01/27 03:11:04;;;;;;;7.25;3.25;;;;;;;;;;5051416;28;20079;-79
2023/01/27 03:13:30;;;;;;;7.40;3.53;;;;;;;;;;5052208;28;20120;-79
2023/01/27 03:18:48;;;;;;;7.78;3.50;;;;;;;;;;5044943;28;20053;-78
2023/01/27 03:21:15;;;;;;;5.28;2.85;;;;;;;;;;5052099;28;20041;-79
2023/01/27 03:23:41;;;;;;;5.07;2.60;;;;;;;;;;5035054;28;20129;-79
2023/01/27 03:26:08;;;;;;;5.07;2.10;;;;;;;;;;5051623;28;20037;-78
2023/01/27 03:28:34;;;;;;;5.68;2.30;;;;;;;;;;5051743;28;20041;-79
2023/01/27 03:31:01;;;;;;;5.80;2.35;;;;;;;;;;5051134;28;20038;-79
2023/01/27 03:33:27;;;;;;;4.75;2.17;;;;;;;;;;5051875;28;20560;-79
2023/01/27 03:46:53;;;;;;;6.00;2.50;;;;;;;;;;5039328;28;20037;-79
2023/01/27 03:49:20;;;;;;;4.93;2.30;;;;;;;;;;5050912;28;20067;-78
2023/01/27 03:51:46;;;;;;;4.68;2.03;;;;;;;;;;5051138;28;20067;-78
2023/01/27 03:54:12;;;;;;;4.60;2.00;;;;;;;;;;5050537;28;20125;-78
2023/01/27 03:56:38;;;;;;;3.60;2.10;;;;;;;;;;5050993;28;20079;-78
2023/01/27 03:59:04;;;;;;;4.57;2.10;;;;;;;;;;5051924;28;20044;-78
2023/01/27 04:01:30;;;;;;;5.15;2.20;;;;;;;;;;5050963;28;20118;-79
2023/01/27 04:06:52;;;;;;;4.75;2.15;;;;;;;;;;5050918;28;20057;-79
2023/01/27 04:09:19;;;;;;;6.45;2.50;;;;;;;;;;5050863;28;20516;-79
2023/01/27 04:11:55;;;;;;;4.80;1.80;;;;;;;;;;5050979;28;20076;-79
2023/01/27 04:14:22;;;;;;;4.50;1.95;;;;;;;;;;5050682;28;20048;-78
2023/01/27 04:16:48;;;;;;;5.70;1.90;;;;;;;;;;5051096;28;20390;-78
2023/01/27 04:19:14;;;;;;;4.60;1.88;;;;;;;;;;5050212;28;20037;-78
2023/01/27 04:21:41;;;;;;;6.25;2.00;;;;;;;;;;5050967;28;20049;-79
2023/01/27 04:24:07;;;;;;;4.07;2.03;;;;;;;;;;5050321;28;20041;-79
2023/01/27 04:26:34;;;;;;;4.13;1.80;;;;;;;;;;5050655;28;20052;-78
2023/01/27 04:29:01;;;;;;;6.03;2.20;;;;;;;;;;5050496;28;20498;-78
2023/01/27 04:31:27;;;;;;;5.45;1.90;;;;;;;;;;5050662;28;20520;-79
2023/01/27 04:33:54;;;;;;;5.50;2.45;;;;;;;;;;5051840;28;20486;-79
2023/01/27 04:36:20;;;;;;;5.97;2.10;;;;;;;;;;5052257;28;20037;-78
2023/01/27 04:38:46;;;;;;;3.53;1.70;;;;;;;;;;5052261;28;20072;-78
2023/01/27 04:41:12;;;;;;;3.10;1.58;;;;;;;;;;5050504;28;20120;-79
2023/01/27 04:43:38;;;;;;;6.45;1.90;;;;;;;;;;5051188;28;20383;-78
2023/01/27 04:46:04;;;;;;;4.95;1.77;;;;;;;;;;5050401;28;20129;-79
2023/01/27 04:48:30;;;;;;;3.60;1.90;;;;;;;;;;5050858;28;20440;-79
2023/01/27 04:50:56;;;;;;;3.70;1.70;;;;;;;;;;5050442;28;20460;-79
2023/01/27 04:53:22;;;;;;;3.97;1.70;;;;;;;;;;5050826;28;20044;-79
2023/01/27 04:55:49;;;;;;;2.50;1.50;;;;;;;;;;5034783;28;20052;-78
2023/01/27 04:58:16;;;;;;;4.90;1.60;;;;;;;;;;5055383;28;20553;-78
2023/01/27 05:00:43;;;;;;;5.57;1.67;;;;;;;;;;5054193;28;20116;-79
2023/01/27 05:03:10;;;;;;;4.45;1.60;;;;;;;;;;5046338;28;20043;-79
2023/01/27 05:05:36;;;;;;;4.10;1.70;;;;;;;;;;5060083;28;20063;-79
2023/01/27 05:08:06;;;;;;;3.92;1.50;;;;;;;;;;5070548;28;20444;-79
2023/01/27 05:10:33;;;;;;;5.35;1.52;;;;;;;;;;5053871;28;20076;-79
2023/01/27 05:13:00;;;;;;;3.67;1.50;;;;;;;;;;5037134;28;20076;-79
2023/01/27 05:15:26;;;;;;;3.45;1.40;;;;;;;;;;5055341;28;20041;-78
2023/01/27 05:17:52;;;;;;;4.75;1.60;;;;;;;;;;5054005;28;20112;-78
2023/01/27 05:20:18;;;;;;;5.47;1.63;;;;;;;;;;5053672;28;20041;-78
2023/01/27 05:22:45;;;;;;;3.95;1.60;;;;;;;;;;5053957;28;20056;-78
2023/01/27 05:25:11;;;;;;;6.28;2.05;;;;;;;;;;5053370;28;20090;-79
2023/01/27 05:27:37;;;;;;;4.60;1.60;;;;;;;;;;5053994;28;20043;-79
2023/01/27 05:30:03;;;;;;;4.45;1.50;;;;;;;;;;5053732;28;20537;-79
2023/01/27 05:32:29;;;;;;;3.17;1.50;;;;;;;;;;5051272;28;20521;-79
2023/01/27 05:34:55;;;;;;;5.10;1.70;;;;;;;;;;5042901;28;20051;-78
2023/01/27 05:37:21;;;;;;;8.20;1.70;;;;;;;;;;5054448;28;20112;-78
2023/01/27 05:39:47;;;;;;;7.22;1.70;;;;;;;;;;5053327;28;20114;-78
2023/01/27 05:42:13;;;;;;;3.55;1.55;;;;;;;;;;5052903;28;20047;-78
2023/01/27 05:44:39;;;;;;;5.63;1.50;;;;;;;;;;5053187;28;20044;-78
2023/01/27 05:47:06;;;;;;;5.22;1.40;;;;;;;;;;5053312;28;20045;-78
2023/01/27 05:49:32;;;;;;;7.50;1.70;;;;;;;;;;5052847;28;20116;-78
2023/01/27 05:51:58;;;;;;;5.10;1.80;;;;;;;;;;5037037;28;20071;-79
2023/01/27 05:54:24;;;;;;;3.55;1.90;;;;;;;;;;5053032;28;20059;-79
2023/01/27 05:56:50;;;;;;;4.70;1.80;;;;;;;;;;5052814;28;20081;-79
2023/01/27 05:59:16;;;;;;;5.00;1.83;;;;;;;;;;5052804;28;20044;-78
2023/01/27 06:01:42;;;;;;;5.78;1.50;;;;;;;;;;5036420;28;20041;-78
2023/01/27 06:04:09;;;;;;;4.97;1.70;;;;;;;;;;5052593;28;20053;-79
2023/01/27 06:06:35;;;;;;;4.90;1.83;;;;;;;;;;5054207;28;20037;-79
2023/01/27 06:09:01;;;;;;;5.03;1.83;;;;;;;;;;5054023;28;20084;-79
2023/01/27 06:11:27;;;;;;;4.28;2.20;;;;;;;;;;5052748;28;20037;-79
2023/01/27 06:13:54;;;;;;;3.92;2.08;;;;;;;;;;5036299;28;20493;-79
2023/01/27 06:16:21;;;;;;;5.47;2.38;;;;;;;;;;5052532;28;20073;-79
2023/01/27 06:18:47;;;;;;;5.50;2.22;;;;;;;;;;5052767;28;20048;-79
2023/01/27 06:21:14;;;;;;;8.20;2.53;;;;;;;;;;5052584;28;20048;-79
2023/01/27 06:23:40;;;;;;;6.28;2.70;;;;;;;;;;5052807;28;20060;-79
2023/01/27 06:26:08;;;;;;;6.75;2.70;;;;;;;;;;5035908;28;20141;-79
2023/01/27 06:28:34;;;;;;;6.68;2.80;;;;;;;;;;5052475;28;20059;-79
2023/01/27 06:31:15;;;;;;;4.78;2.53;;;;;;;;;;5052539;28;20148;-79
2023/01/27 06:33:41;;;;;;;6.07;2.60;;;;;;;;;;5052706;28;20044;-78
2023/01/27 06:36:08;;;;;;;6.03;2.35;;;;;;;;;;5052434;28;20538;-78
2023/01/27 06:38:34;;;;;;;4.35;2.70;;;;;;;;;;5052451;28;20044;-78
2023/01/27 06:41:00;;;;;;;5.65;2.88;;;;;;;;;;5052017;28;20047;-79
2023/01/27 06:43:27;;;;;;;5.47;2.45;;;;;;;;;;5051482;28;20117;-78
2023/01/27 06:45:54;;;;;;;5.85;2.33;;;;;;;;;;5035402;28;20045;-78
2023/01/27 06:48:20;;;;;;;5.97;2.65;;;;;;;;;;5052195;28;20098;-78
2023/01/27 06:50:46;;;;;;;5.93;2.45;;;;;;;;;;5051622;28;20065;-78
2023/01/27 06:53:12;;;;;;;5.53;2.75;;;;;;;;;;5034877;28;20072;-78
2023/01/27 06:55:40;;;;;;;7.45;2.97;;;;;;;;;;5051939;28;20144;-78
2023/01/27 06:58:10;;;;;;;7.40;2.90;;;;;;;;;;5051784;28;20037;-78
2023/01/27 07:00:37;;;;;;;5.38;2.90;;;;;;;;;;5053234;28;20069;-78
2023/01/27 07:03:03;;;;;;;5.50;2.70;;;;;;;;;;5051629;28;20124;-78
2023/01/27 07:05:29;;;;;;;4.88;2.65;;;;;;;;;;5055903;28;20120;-78
2023/01/27 07:07:55;;;;;;;6.57;2.97;;;;;;;;;;5061019;28;20116;-78
2023/01/27 07:10:21;;;;;;;5.28;2.67;;;;;;;;;;5051528;28;20514;-78
2023/01/27 07:12:47;;;;;;;4.57;2.60;;;;;;;;;;5052831;28;20398;-78
2023/01/27 07:15:14;;;;;;;7.55;2.50;;;;;;;;;;5051266;28;20393;-78
2023/01/27 07:17:40;;;;;;;6.38;2.63;;;;;;;;;;5051612;28;20041;-78
2023/01/27 07:20:08;;;;;;;4.88;2.58;;;;;;;;;;5051555;28;20051;-78
2023/01/27 07:22:34;;;;;;;6.57;2.80;;;;;;;;;;5051036;28;20414;-78
2023/01/27 07:25:01;;;;;;;6.85;3.08;;;;;;;;;;5051462;28;20091;-78
2023/01/27 07:27:27;;;;;;;5.80;2.80;;;;;;;;;;5051212;28;20079;-78
2023/01/27 07:29:53;;;;;;;4.75;2.60;;;;;;;;;;5052392;28;20045;-78
2023/01/27 07:32:19;;;;;;;6.88;2.75;;;;;;;;;;5034275;28;20040;-78
2023/01/27 07:34:45;;;;;;;5.13;2.85;;;;;;;;;;5034974;28;20379;-78
2023/01/27 07:37:11;;;;;;;7.32;2.92;;;;;;;;;;5051677;28;20045;-78
2023/01/27 07:39:37;;;;;;;4.50;2.28;;;;;;;;;;5050797;28;20041;-78
2023/01/27 07:42:04;;;;;;;4.15;2.38;;;;;;;;;;5051096;28;20440;-78
2023/01/27 07:44:30;;;;;;;6.22;2.45;;;;;;;;;;5050843;28;20076;-78
2023/01/27 07:46:57;;;;;;;4.75;2.50;;;;;;;;;;5052019;28;20049;-78
2023/01/27 07:49:23;;;;;;;7.63;2.55;;;;;;;;;;5050589;28;20045;-78
2023/01/27 07:51:50;;;;;;;7.90;2.45;;;;;;;;;;5051070;28;20103;-78
2023/01/27 07:54:16;;;;;;;5.15;2.40;;;;;;;;;;5050924;28;20033;-78
2023/01/27 07:56:42;;;;;;;6.65;2.40;;;;;;;;;;5051002;28;20146;-78
2023/01/27 07:59:09;;;;;;;5.18;2.58;;;;;;;;;;5051144;28;20080;-78
2023/01/27 08:01:36;;;;;;;5.80;2.42;;;;;;;;;;5050963;28;20044;-78
2023/01/27 08:04:02;;;;;;;4.53;2.40;;;;;;;;;;5051245;28;20163;-78
2023/01/27 08:06:28;;;;;;;7.20;2.58;;;;;;;;;;5050615;28;20052;-78
2023/01/27 08:08:54;;;;;;;4.53;2.40;;;;;;;;;;5050873;28;20037;-79
2023/01/27 08:11:20;;;;;;;4.82;2.20;;;;;;;;;;5050815;28;20049;-78
2023/01/27 08:13:46;;;;;;;4.90;2.10;;;;;;;;;;5050746;28;20051;-78
2023/01/27 08:16:14;;;;;;;4.72;2.20;;;;;;;;;;5050943;28;20037;-78
2023/01/27 08:18:40;;;;;;;5.55;1.88;;;;;;;;;;5050219;28;20098;-78
2023/01/27 08:21:08;;;;;;;6.15;2.70;;;;;;;;;;5034476;28;20405;-78
2023/01/27 08:23:34;;;;;;;4.18;2.00;;;;;;;;;;5050668;28;20056;-78
2023/01/27 08:26:01;;;;;;;5.65;1.90;;;;;;;;;;5034129;28;20083;-79
2023/01/27 08:28:29;;;;;;;4.50;1.83;;;;;;;;;;5050343;28;20041;-78
2023/01/27 08:31:02;;;;;;;4.25;2.00;;;;;;;;;;5051626;28;20048;-78
2023/01/27 08:33:28;;;;;;;6.65;2.20;;;;;;;;;;5067970;28;20045;-78
2023/01/27 08:35:54;;;;;;;5.28;2.00;;;;;;;;;;5068832;28;20556;-79
2023/01/27 08:38:20;;;;;;;5.15;1.98;;;;;;;;;;5038136;28;20491;-78
2023/01/27 08:40:47;;;;;;;4.05;2.00;;;;;;;;;;5068633;28;20096;-78
2023/01/27 08:43:16;;;;;;;5.40;2.00;;;;;;;;;;5065553;28;20111;-78
2023/01/27 08:45:43;;;;;;;4.63;1.70;;;;;;;;;;5088110;28;20040;-78
2023/01/27 08:48:09;;;;;;;5.85;2.00;;;;;;;;;;5062905;28;20094;-79
2023/01/27 08:50:35;;;;;;;3.63;1.90;;;;;;;;;;5059530;28;20057;-78
2023/01/27 08:53:03;;;;;;;3.67;1.90;;;;;;;;;;5057763;28;20040;-79
2023/01/27 08:55:30;;;;;;;3.72;1.92;;;;;;;;;;5073980;28;20115;-78
2023/01/27 08:57:56;;;;;;;5.25;1.80;;;;;;;;;;5073871;28;20040;-79
2023/01/27 09:00:22;;;;;;;4.70;2.00;;;;;;;;;;5063079;28;20521;-79
2023/01/27 09:02:51;;;;;;;5.65;1.92;;;;;;;;;;5056736;28;20071;-78
2023/01/27 09:05:18;;;;;;;4.82;1.80;;;;;;;;;;5070809;28;20036;-78
2023/01/27 09:07:45;;;;;;;6.43;1.90;;;;;;;;;;5053569;28;20045;-78
2023/01/27 09:10:12;;;;;;;3.90;1.92;;;;;;;;;;5039699;28;20119;-78
2023/01/27 09:12:38;;;;;;;6.68;1.63;;;;;;;;;;5053663;28;20151;-78
2023/01/27 09:15:04;;;;;;;5.30;2.15;;;;;;;;;;5054033;28;20398;-78
2023/01/27 09:17:30;;;;;;;4.70;1.70;;;;;;;;;;5053173;28;20048;-78
2023/01/27 09:19:57;;;;;;;3.95;2.03;;;;;;;;;;5053950;28;20127;-78
2023/01/27 09:22:23;;;;;;;5.45;2.30;;;;;;;;;;5053456;28;20124;-78
2023/01/27 09:24:49;;;;;;;2.97;1.63;;;;;;;;;;5036727;28;20048;-79
2023/01/27 09:27:15;;;;;;;6.55;2.05;;;;;;;;;;5053739;28;20134;-79
2023/01/27 09:29:41;;;;;;;7.10;2.17;;;;;;;;;;5053272;28;20057;-79
2023/01/27 09:32:08;;;;;;;6.53;1.98;;;;;;;;;;5053386;28;20044;-79
2023/01/27 09:34:34;;;;;;;8.52;1.95;;;;;;;;;;5036370;28;20037;-78
2023/01/27 09:37:04;;;;;;;7.55;2.15;;;;;;;;;;5054715;28;20037;-79
2023/01/27 09:39:31;;;;;;;6.25;2.20;;;;;;;;;;5052867;28;20048;-79
2023/01/27 09:42:16;;;;;;;3.38;1.77;;;;;;;;;;5053550;28;20124;-79
2023/01/27 09:44:54;;;;;;;4.57;2.00;;;;;;;;;;5053329;28;20547;-78
2023/01/27 09:47:26;;;;;;;8.65;2.33;;;;;;;;;;5053200;28;20049;-78
2023/01/27 09:50:02;;;;;;;6.60;2.50;;;;;;;;;;5038886;28;20116;-78
2023/01/27 09:52:31;;;;;;;6.55;2.47;;;;;;;;;;5053817;28;20053;-78
2023/01/27 09:55:07;;;;;;;6.07;2.45;;;;;;;;;;5053329;28;20049;-78
2023/01/27 09:57:41;;;;;;;4.53;2.30;;;;;;;;;;5053321;28;20516;-78
2023/01/27 10:00:07;;;;;;;8.00;3.00;;;;;;;;;;5052965;28;20102;-78
2023/01/27 10:02:39;;;;;;;6.43;2.45;;;;;;;;;;5052612;28;20048;-79
2023/01/27 10:05:11;;;;;;;7.30;2.83;;;;;;;;;;5054471;28;20037;-79
2023/01/27 10:07:56;;;;;;;6.45;2.70;;;;;;;;;;5065750;28;20040;-78
2023/01/27 10:10:31;;;;;;;7.85;2.97;;;;;;;;;;5052770;28;20422;-78
2023/01/27 10:13:16;;;;;;;5.20;2.63;;;;;;;;;;5052903;28;20444;-78
2023/01/27 10:15:55;;;;;;;5.20;2.85;;;;;;;;;;5052391;28;20065;-79
2023/01/27 10:18:21;;;;;;;6.93;2.88;;;;;;;;;;5052948;28;20037;-79
2023/01/27 10:20:54;;;;;;;6.43;2.53;;;;;;;;;;5052246;28;20068;-79
2023/01/27 10:23:29;;;;;;;5.03;2.60;;;;;;;;;;5052662;28;20055;-79
2023/01/27 10:26:01;;;;;;;6.88;2.83;;;;;;;;;;5052129;28;20076;-78
2023/01/27 10:28:29;;;;;;;6.35;2.80;;;;;;;;;;5052501;28;20048;-78
2023/01/27 10:30:55;;;;;;;10.68;3.22;;;;;;;;;;5052391;28;20053;-78
2023/01/27 10:33:23;;;;;;;6.60;2.85;;;;;;;;;;5052393;28;20072;-79
2023/01/27 10:35:59;;;;;;;8.27;2.80;;;;;;;;;;5049770;28;20045;-79
2023/01/27 10:38:37;;;;;;;7.25;2.70;;;;;;;;;;5025990;28;20041;-79
2023/01/27 10:41:13;;;;;;;5.40;2.80;;;;;;;;;;5052512;28;20448;-79
2023/01/27 10:43:58;;;;;;;5.65;2.58;;;;;;;;;;5051997;28;20055;-78
2023/01/27 10:46:30;;;;;;;4.88;2.50;;;;;;;;;;5052098;28;20041;-79
2023/01/27 10:49:11;;;;;;;4.00;2.63;;;;;;;;;;5051964;28;20474;-78
2023/01/27 10:51:41;;;;;;;3.28;1.73;;;;;;;;;;5025506;28;20045;-79
2023/01/27 10:54:26;;;;;;;4.38;1.60;;;;;;;;;;5035056;28;20045;-80
2023/01/27 10:57:02;;;;;;;3.28;1.40;;;;;;;;;;5039813;28;20032;-79
2023/01/27 10:59:31;;;;;;;4.18;1.70;;;;;;;;;;5053366;28;20040;-79
2023/01/27 11:02:02;;;;;;;3.55;1.83;;;;;;;;;;5052333;28;20045;-80
2023/01/27 11:04:40;;;;;;;2.78;1.63;;;;;;;;;;5053327;28;20405;-79
2023/01/27 11:07:06;;;;;;;4.97;1.88;;;;;;;;;;5051821;28;20119;-79
2023/01/27 11:09:38;;;;;;;3.92;1.88;;;;;;;;;;5051861;28;20041;-79
2023/01/27 11:12:08;;;;;;;4.68;1.80;;;;;;;;;;5051730;28;20119;-79
2023/01/27 11:14:43;;;;;;;3.95;2.00;;;;;;;;;;5051923;28;20140;-79
2023/01/27 11:17:28;;;;;;;5.65;1.80;;;;;;;;;;5051810;28;20044;-78
2023/01/27 11:20:13;;;;;;;7.97;2.60;;;;;;;;;;5051413;28;20098;-79
2023/01/27 11:22:58;;;;;;;4.55;1.60;;;;;;;;;;5038080;28;20423;-79
2023/01/27 11:25:29;;;;;;;4.03;1.70;;;;;;;;;;5052219;28;20037;-79
2023/01/27 11:28:17;;;;;;;2.05;1.17;;;;;;;;;;5039251;28;20078;-79
2023/01/27 11:30:47;;;;;;;3.22;1.30;;;;;;;;;;5051694;28;20045;-79
2023/01/27 11:33:45;;;;;;;3.20;1.10;;;;;;;;;;5051989;28;20516;-79
2023/01/27 11:36:11;;;;;;;1.80;1.00;;;;;;;;;;5040429;28;20047;-78
2023/01/27 11:38:37;;;;;;;2.72;1.30;;;;;;;;;;5068588;28;20501;-79
2023/01/27 11:41:04;;;;;;;2.40;1.25;;;;;;;;;;5051350;28;20469;-79
2023/01/27 11:43:30;;;;;;;3.63;1.25;;;;;;;;;;5052004;28;20519;-79
2023/01/27 11:46:00;;;;;;;3.22;1.30;;;;;;;;;;5051643;28;20049;-79
2023/01/27 11:48:27;;;;;;;2.90;1.20;;;;;;;;;;5051615;28;20047;-79
2023/01/27 11:50:53;;;;;;;3.80;1.10;;;;;;;;;;5050630;28;20080;-79
2023/01/27 11:53:30;;;;;;;4.78;1.50;;;;;;;;;;5035618;28;20501;-78
2023/01/27 11:56:02;;;;;;;3.55;1.38;;;;;;;;;;5065596;28;20040;-79
2023/01/27 11:58:44;;;;;;;2.25;1.27;;;;;;;;;;5052648;28;20041;-79
2023/01/27 12:01:34;;;;;;;2.70;0.73;;;;;;;;;;5051206;28;20080;-79
2023/01/27 12:04:06;;;;;;;2.40;1.20;;;;;;;;;;5045693;28;20110;-79
2023/01/27 12:06:37;;;;;;;1.95;0.95;;;;;;;;;;5054939;28;20472;-79
2023/01/27 12:09:03;;;;;;;2.35;1.15;;;;;;;;;;5055591;28;20044;-79
2023/01/27 12:11:30;;;;;;;1.80;1.08;;;;;;;;;;5056399;28;20033;-78
2023/01/27 12:14:05;;;;;;;3.08;0.98;;;;;;;;;;5055972;28;20068;-79
2023/01/27 12:16:44;;;;;;;2.05;1.00;;;;;;;;;;5055493;28;20408;-78
2023/01/27 12:19:23;;;;;;;2.38;0.93;;;;;;;;;;5038539;28;20174;-78
2023/01/27 12:21:51;;;;;;;1.52;0.80;;;;;;;;;;5054861;28;20094;-79
2023/01/27 12:24:38;;;;;;;1.42;0.90;;;;;;;;;;5041227;28;20553;-78
2023/01/27 12:27:05;;;;;;;2.15;1.10;;;;;;;;;;5054919;28;20048;-78
2023/01/27 12:29:41;;;;;;;2.25;1.25;;;;;;;;;;5055254;28;20041;-78
2023/01/27 12:32:16;;;;;;;4.38;1.50;;;;;;;;;;5055004;28;20040;-80
2023/01/27 12:34:43;;;;;;;3.00;1.40;;;;;;;;;;5022430;28;20025;-79
2023/01/27 12:37:18;;;;;;;3.40;1.42;;;;;;;;;;5048575;28;20055;-79
2023/01/27 12:39:49;;;;;;;2.10;1.30;;;;;;;;;;5041981;28;20468;-79
2023/01/27 12:42:34;;;;;;;2.88;1.40;;;;;;;;;;5038257;28;20103;-78
2023/01/27 12:45:11;;;;;;;2.08;1.35;;;;;;;;;;5042557;28;20048;-79
2023/01/27 12:47:37;;;;;;;3.38;1.60;;;;;;;;;;5055948;28;20056;-79
2023/01/27 12:50:19;;;;;;;3.45;1.42;;;;;;;;;;5037688;28;20056;-79
2023/01/27 12:52:51;;;;;;;3.50;1.63;;;;;;;;;;5054588;28;20149;-78
2023/01/27 12:55:27;;;;;;;4.57;1.77;;;;;;;;;;5038443;28;20505;-79
2023/01/27 12:57:53;;;;;;;3.22;1.75;;;;;;;;;;5055727;28;20043;-79
2023/01/27 13:00:20;;;;;;;3.47;1.88;;;;;;;;;;5056091;28;20063;-79
2023/01/27 13:02:47;;;;;;;3.35;2.08;;;;;;;;;;5054214;28;20045;-79
2023/01/27 13:05:15;;;;;;;3.63;2.00;;;;;;;;;;5054061;28;20492;-79
2023/01/27 13:07:45;;;;;;;3.65;2.22;;;;;;;;;;5054367;28;20398;-78
2023/01/27 13:10:24;;;;;;;3.70;2.17;;;;;;;;;;5054927;28;20029;-79
2023/01/27 13:12:51;;;;;;;4.32;2.20;;;;;;;;;;5081879;28;20059;-78
2023/01/27 13:15:19;;;;;;;3.70;2.38;;;;;;;;;;5053659;28;20037;-78
2023/01/27 13:17:50;;;;;;;4.57;2.35;;;;;;;;;;5053203;28;20040;-78
2023/01/27 13:20:39;;;;;;;3.97;2.22;;;;;;;;;;5053283;28;20051;-79
2023/01/27 13:23:16;;;;;;;3.70;2.20;;;;;;;;;;5053346;28;20041;-79
2023/01/27 13:25:42;;;;;;;3.78;2.33;;;;;;;;;;5037234;28;20124;-79
2023/01/27 13:28:11;;;;;;;3.70;2.40;;;;;;;;;;5036982;28;20072;-78
2023/01/27 13:30:39;;;;;;;3.50;2.20;;;;;;;;;;5053659;28;20072;-79
2023/01/27 13:33:24;;;;;;;3.17;2.15;;;;;;;;;;5036883;28;20049;-78
2023/01/27 13:35:55;;;;;;;4.22;2.40;;;;;;;;;;5051947;28;20041;-78
2023/01/27 13:38:24;;;;;;;3.92;2.25;;;;;;;;;;5053632;28;20072;-79
2023/01/27 13:40:50;;;;;;;3.25;2.13;;;;;;;;;;5053704;28;20072;-79
2023/01/27 13:43:28;;;;;;;3.60;2.30;;;;;;;;;;5037280;28;20517;-79
2023/01/27 13:45:54;;;;;;;5.30;2.40;;;;;;;;;;5053301;28;20052;-78
2023/01/27 13:48:38;;;;;;;4.50;2.70;;;;;;;;;;5053027;28;20048;-78
2023/01/27 13:51:04;;;;;;;3.53;2.40;;;;;;;;;;5054118;28;20155;-79
2023/01/27 13:53:30;;;;;;;5.18;2.47;;;;;;;;;;5053326;28;20045;-78
2023/01/27 13:56:05;;;;;;;3.80;2.47;;;;;;;;;;5052940;28;20060;-78
2023/01/27 13:58:46;;;;;;;5.32;3.03;;;;;;;;;;5052952;28;20045;-78
2023/01/27 14:01:17;;;;;;;6.10;3.80;;;;;;;;;;5053248;28;20041;-78
2023/01/27 14:03:43;;;;;;;6.55;3.15;;;;;;;;;;5053291;28;20086;-78
2023/01/27 14:06:15;;;;;;;4.95;2.90;;;;;;;;;;5052736;28;20041;-78
2023/01/27 14:08:48;;;;;;;5.55;3.10;;;;;;;;;;5054239;28;20037;-78
2023/01/27 14:11:33;;;;;;;4.13;2.55;;;;;;;;;;5052909;28;20063;-78
2023/01/27 14:14:18;;;;;;;4.55;2.90;;;;;;;;;;5053017;28;20041;-79
2023/01/27 14:16:53;;;;;;;5.13;3.10;;;;;;;;;;5052944;28;20041;-79
2023/01/27 14:19:31;;;;;;;5.10;3.10;;;;;;;;;;5039350;28;20413;-79
2023/01/27 14:22:01;;;;;;;4.75;3.13;;;;;;;;;;5052801;28;20049;-78
2023/01/27 14:24:44;;;;;;;27.67;16.55;;;;;;;;;;5053859;28;20033;-79
2023/01/27 14:27:10;;;;;;;10.57;5.25;;;;;;;;;;5035620;28;20098;-78
2023/01/27 14:29:45;;;;;;;9.05;4.95;;;;;;;;;;5051478;28;20033;-79
2023/01/27 14:32:20;;;;;;;6.40;4.05;;;;;;;;;;5052220;28;20052;-78
2023/01/27 14:34:52;;;;;;;5.72;3.33;;;;;;;;;;5052699;28;20080;-79
2023/01/27 14:37:21;;;;;;;6.50;3.72;;;;;;;;;;5053223;28;20091;-78
2023/01/27 14:40:07;;;;;;;6.88;4.10;;;;;;;;;;5053924;28;20401;-81
2023/01/27 14:42:52;;;;;;;8.35;4.13;;;;;;;;;;5054867;28;20090;-79
2023/01/27 14:45:20;;;;;;;9.05;5.30;;;;;;;;;;5051875;28;20036;-79
2023/01/27 14:47:46;;;;;;;10.95;5.50;;;;;;;;;;5052284;28;20059;-79
2023/01/27 14:50:12;;;;;;;10.25;5.88;;;;;;;;;;5051779;28;20040;-79
2023/01/27 14:52:40;;;;;;;6.82;4.30;;;;;;;;;;5035893;28;20037;-80
2023/01/27 14:55:06;;;;;;;7.95;4.53;;;;;;;;;;5051773;28;20048;-79
2023/01/27 14:57:50;;;;;;;8.23;5.10;;;;;;;;;;5035648;28;20512;-79
2023/01/27 15:00:41;;;;;;;5.22;3.38;;;;;;;;;;5051823;28;20041;-80
2023/01/27 15:03:33;;;;;;;5.68;3.72;;;;;;;;;;5051936;28;20037;-79
2023/01/27 15:06:10;;;;;;;6.15;3.65;;;;;;;;;;5035166;28;20079;-79
2023/01/27 15:08:46;;;;;;;6.47;3.78;;;;;;;;;;5051674;28;20045;-79
2023/01/27 15:11:27;;;;;;;5.93;3.67;;;;;;;;;;5052115;28;20456;-79
2023/01/27 15:13:53;;;;;;;6.22;3.13;;;;;;;;;;5051722;28;20397;-79
2023/01/27 15:16:26;;;;;;;8.05;3.45;;;;;;;;;;5052703;28;20041;-79
2023/01/27 15:18:59;;;;;;;4.80;3.25;;;;;;;;;;5051576;28;20071;-79